OK93 weather

Airman Acres Airport
Collinsville, Oklahoma, United States

Public forecast

Using degrees Fahrenheit for public forecast. Weather courtesy of forecast.io.

METAR (pilot weather report)

Closest report is Tulsa International Airport, 8.1 nm (15.0 km) S. Retrieved 2019/04/22 21:53 UTC (11 minutes ago):

KTUL 222153Z 19009KT 10SM FEW030 OVC044 23/17 A3000 RMK AO2 SLP152 T02330167

TAF (pilot weather forecast)

Closest forecast is Tulsa International Airport, 8.1 nm (15.0 km) S. Retrieved 2019/04/22 18:22 UTC (4 hours ago):

TAF KTUL 221720Z 2218/2318 19010KT P6SM OVC020 FM222100 20012KT P6SM BKN035 PROB30 2304/2310 5SM -TSRA BR BKN025CB FM231000 01007KT P6SM BKN025 TEMPO 2310/2314 4SM TSRA OVC015CB FM231400 02006KT 5SM -RA BKN025